Time;durP1;ratioP1;P1;durP2;ratioP2;P2;SDS_P1;SDS_P2;PMS_P1;PMS_P2;Temp;Humidity;BMP_temperature;BMP_pressure;BME280_temperature;BME280_humidity;BME280_pressure;Samples;Min_cycle;Max_cycle;Signal;HPM_P1;HPM_P2
2022/01/05 00:00:15;;;;;;;23.80;12.77;;;;;;;0.79;100.00;97949.35;1701031;84;21476;-72
2022/01/05 00:02:41;;;;;;;23.47;12.83;;;;;;;0.80;100.00;97948.84;1697062;84;21007;-71
2022/01/05 00:05:09;;;;;;;24.03;12.47;;;;;;;0.78;100.00;97949.03;1715399;84;21466;-71
2022/01/05 00:07:36;;;;;;;22.77;12.73;;;;;;;0.77;100.00;97951.34;1675512;83;21044;-71
2022/01/05 00:10:04;;;;;;;22.10;11.90;;;;;;;0.74;100.00;97945.01;1708335;83;21081;-72
2022/01/05 00:12:31;;;;;;;24.30;12.40;;;;;;;0.73;100.00;97938.86;1688284;84;21022;-72
2022/01/05 00:14:59;;;;;;;24.53;12.33;;;;;;;0.75;100.00;97940.03;1708525;84;21049;-73
2022/01/05 00:17:26;;;;;;;21.30;11.47;;;;;;;0.75;100.00;97935.54;1708238;84;21045;-72
2022/01/05 00:19:53;;;;;;;20.97;11.60;;;;;;;0.77;100.00;97929.23;1688498;84;21501;-72
2022/01/05 00:22:20;;;;;;;21.97;11.30;;;;;;;0.80;100.00;97928.89;1708248;84;21034;-70
2022/01/05 00:24:46;;;;;;;30.37;15.63;;;;;;;0.82;100.00;97926.42;1688246;84;21494;-72
2022/01/05 00:27:13;;;;;;;30.37;17.50;;;;;;;0.84;100.00;97915.63;1709674;84;21089;-71
2022/01/05 00:29:40;;;;;;;38.27;21.87;;;;;;;0.84;100.00;97908.47;1690396;84;21086;-71
2022/01/05 00:32:08;;;;;;;37.70;22.43;;;;;;;0.85;100.00;97898.65;1708878;84;21037;-70
2022/01/05 00:34:36;;;;;;;26.93;14.90;;;;;;;0.86;100.00;97896.34;1688268;84;21009;-70
2022/01/05 00:37:04;;;;;;;23.50;11.43;;;;;;;0.89;100.00;97904.00;1706227;83;21018;-72
2022/01/05 00:39:32;;;;;;;20.10;10.03;;;;;;;0.94;100.00;97899.86;1706500;84;21065;-70
2022/01/05 00:41:59;;;;;;;22.43;11.37;;;;;;;1.03;100.00;97894.06;1706484;84;21030;-72
2022/01/05 00:44:26;;;;;;;21.17;10.53;;;;;;;1.08;100.00;97879.77;1706607;84;20962;-71
2022/01/05 00:46:53;;;;;;;18.10;9.10;;;;;;;1.11;100.00;97867.95;1706295;84;21006;-72
2022/01/05 00:49:20;;;;;;;19.23;9.53;;;;;;;1.14;100.00;97863.12;1706453;84;21002;-70
2022/01/05 00:51:47;;;;;;;18.80;10.13;;;;;;;1.18;100.00;97861.47;1706255;84;21049;-71
2022/01/05 00:54:14;;;;;;;19.43;9.53;;;;;;;1.21;100.00;97862.48;1686427;84;21463;-70
2022/01/05 00:56:41;;;;;;;17.77;9.50;;;;;;;1.25;100.00;97856.64;1685890;84;21089;-72
2022/01/05 00:59:09;;;;;;;18.90;9.33;;;;;;;1.28;100.00;97854.17;1706020;84;21113;-72
2022/01/05 01:01:36;;;;;;;16.73;9.47;;;;;;;1.32;100.00;97842.17;1686660;84;21061;-72
2022/01/05 01:04:05;;;;;;;16.73;9.10;;;;;;;1.35;100.00;97843.19;1698860;84;20945;-71
2022/01/05 01:06:31;;;;;;;16.93;8.67;;;;;;;1.36;100.00;97836.84;1703636;84;21044;-71
2022/01/05 01:08:59;;;;;;;19.43;9.63;;;;;;;1.39;100.00;97845.02;1694485;84;21010;-71
2022/01/05 01:11:26;;;;;;;18.17;9.43;;;;;;;1.40;100.00;97846.66;1706233;84;21014;-71
2022/01/05 01:13:53;;;;;;;19.80;9.73;;;;;;;1.41;100.00;97839.84;1706520;83;21034;-70
2022/01/05 01:16:20;;;;;;;18.10;9.80;;;;;;;1.44;100.00;97831.52;1706142;84;21050;-72
2022/01/05 01:18:47;;;;;;;19.37;10.23;;;;;;;1.46;100.00;97830.03;1686122;84;21041;-72
2022/01/05 01:21:14;;;;;;;19.37;10.30;;;;;;;1.47;100.00;97821.02;1686105;84;21069;-70
2022/01/05 01:23:49;;;;;;;20.83;9.93;;;;;;;1.47;100.00;97810.38;1686047;84;21503;-72
2022/01/05 01:26:09;;;;;;;19.57;10.17;;;;;;;1.47;100.00;97818.36;1685982;84;21018;-71
2022/01/05 01:28:36;;;;;;;17.53;9.57;;;;;;;1.44;100.00;97815.55;1706169;83;21081;-71
2022/01/05 01:31:03;;;;;;;18.77;9.83;;;;;;;1.43;100.00;97807.21;1686141;84;21033;-71
2022/01/05 01:33:30;;;;;;;17.20;10.27;;;;;;;1.43;100.00;97809.88;1705959;84;21507;-72
2022/01/05 01:35:58;;;;;;;21.73;10.10;;;;;;;1.41;100.00;97810.55;1687447;84;21527;-72
2022/01/05 01:38:25;;;;;;;20.97;10.50;;;;;;;1.39;100.00;97807.22;1706378;84;21511;-71
2022/01/05 01:40:52;;;;;;;18.87;9.63;;;;;;;1.39;100.00;97807.73;1686041;84;21062;-71
2022/01/05 01:43:19;;;;;;;17.43;10.03;;;;;;;1.40;100.00;97808.90;1685973;84;21538;-72
2022/01/05 01:45:46;;;;;;;18.80;9.90;;;;;;;1.42;100.00;97806.08;1686038;84;21010;-71
2022/01/05 01:48:13;;;;;;;20.27;10.00;;;;;;;1.43;100.00;97804.55;1705911;84;21045;-71
2022/01/05 01:50:40;;;;;;;19.60;9.93;;;;;;;1.43;100.00;97797.06;1685742;84;21018;-71
2022/01/05 01:53:07;;;;;;;20.00;9.73;;;;;;;1.41;100.00;97793.23;1685722;84;21046;-71
2022/01/05 01:55:36;;;;;;;21.73;10.47;;;;;;;1.41;100.00;97789.24;1705998;84;21062;-71
2022/01/05 01:58:05;;;;;;;22.87;11.60;;;;;;;1.42;100.00;97786.92;1706248;84;21038;-71
2022/01/05 02:00:32;;;;;;;21.87;11.43;;;;;;;1.43;100.00;97778.42;1685821;84;21014;-70
2022/01/05 02:02:59;;;;;;;18.33;9.43;;;;;;;1.43;100.00;97765.94;1706784;84;21081;-71
2022/01/05 02:05:26;;;;;;;20.03;8.90;;;;;;;1.47;100.00;97762.43;1706091;84;21068;-71
2022/01/05 02:07:53;;;;;;;18.17;9.10;;;;;;;1.49;100.00;97749.80;1685224;84;21506;-72
2022/01/05 02:10:21;;;;;;;16.80;8.47;;;;;;;1.51;100.00;97743.30;1664438;84;21093;-70
2022/01/05 02:12:50;;;;;;;19.50;9.20;;;;;;;1.54;100.00;97735.96;1665453;85;21069;-71
2022/01/05 02:15:17;;;;;;;18.20;9.10;;;;;;;1.56;100.00;97732.14;1638315;85;21022;-71
2022/01/05 02:18:07;;;;;;;19.00;9.63;;;;;;;1.57;100.00;97726.30;1675630;85;21547;-71
2022/01/05 02:20:25;;;;;;;18.07;9.43;;;;;;;1.58;100.00;97724.80;1663153;85;21038;-71
2022/01/05 02:22:52;;;;;;;18.60;8.73;;;;;;;1.58;100.00;97711.48;1607039;87;21592;-72
2022/01/05 02:25:19;;;;;;;16.10;8.20;;;;;;;1.57;100.00;97706.33;1623648;88;21548;-71
2022/01/05 02:27:48;;;;;;;14.30;8.03;;;;;;;1.60;100.00;97711.31;1631204;87;21115;-72
2022/01/05 02:30:22;;;;;;;15.03;8.30;;;;;;;1.62;100.00;97705.31;1630130;88;21543;-71
2022/01/05 02:32:49;;;;;;;16.80;8.50;;;;;;;1.63;100.00;97704.30;1629214;88;21047;-72
2022/01/05 02:35:16;;;;;;;16.40;7.97;;;;;;;1.62;100.00;97706.14;1607327;87;21473;-72
2022/01/05 02:37:45;;;;;;;16.83;7.80;;;;;;;1.64;100.00;97696.65;1627223;88;21066;-71
2022/01/05 02:40:14;;;;;;;17.93;8.57;;;;;;;1.65;100.00;97695.15;1605829;88;21028;-72
2022/01/05 02:42:42;;;;;;;15.80;8.33;;;;;;;1.66;100.00;97683.47;1606042;88;21591;-71
2022/01/05 02:45:13;;;;;;;17.37;9.43;;;;;;;1.71;100.00;97678.45;1627183;88;21007;-71
2022/01/05 02:47:39;;;;;;;17.23;8.60;;;;;;;1.73;100.00;97674.80;1620394;88;21059;-70
2022/01/05 02:50:09;;;;;;;15.07;7.97;;;;;;;1.74;100.00;97659.16;1629083;88;21653;-71
2022/01/05 02:52:36;;;;;;;15.33;7.77;;;;;;;1.75;100.00;97640.82;1607663;88;21540;-71
2022/01/05 02:55:03;;;;;;;14.43;7.50;;;;;;;1.74;100.00;97645.33;1607679;88;21031;-71
2022/01/05 02:57:31;;;;;;;19.80;8.77;;;;;;;1.74;100.00;97629.34;1629018;88;21527;-71
2022/01/05 02:59:58;;;;;;;15.57;8.17;;;;;;;1.75;100.00;97632.83;1628890;88;21090;-72
2022/01/05 03:02:25;;;;;;;16.87;8.20;;;;;;;1.75;100.00;97634.98;1630455;87;21119;-72
2022/01/05 03:04:52;;;;;;;17.83;9.27;;;;;;;1.76;100.00;97633.98;1647883;87;21063;-71
2022/01/05 03:07:19;;;;;;;13.67;7.10;;;;;;;1.78;100.00;97629.31;1647720;87;21039;-71
2022/01/05 03:09:46;;;;;;;14.83;7.80;;;;;;;1.80;100.00;97629.14;1649915;87;21042;-72
2022/01/05 03:12:13;;;;;;;19.20;8.20;;;;;;;1.83;100.00;97628.80;1647128;86;21559;-73
2022/01/05 03:14:41;;;;;;;16.47;8.27;;;;;;;1.85;100.00;97625.45;1647199;86;21062;-72
2022/01/05 03:17:08;;;;;;;16.77;8.20;;;;;;;1.84;100.00;97622.45;1706084;84;21023;-72
2022/01/05 03:19:35;;;;;;;16.37;8.70;;;;;;;1.84;100.00;97608.64;1732999;81;21012;-73
2022/01/05 03:22:03;;;;;;;17.50;9.00;;;;;;;1.84;100.00;97610.45;1760760;81;21046;-72
2022/01/05 03:24:30;;;;;;;16.70;8.30;;;;;;;1.84;100.00;97613.13;1760907;81;21055;-72
2022/01/05 03:26:57;;;;;;;16.43;8.40;;;;;;;1.85;100.00;97617.45;1760529;81;21452;-72
2022/01/05 03:29:25;;;;;;;17.00;8.70;;;;;;;1.86;100.00;97613.77;1760648;81;20996;-72
2022/01/05 03:31:52;;;;;;;16.27;7.90;;;;;;;1.86;100.00;97614.63;1760581;81;21493;-70
2022/01/05 03:34:20;;;;;;;13.63;7.00;;;;;;;1.88;100.00;97617.94;1760741;81;21078;-72
2022/01/05 03:36:47;;;;;;;14.73;7.40;;;;;;;1.92;100.00;97612.27;1760732;81;21015;-72
2022/01/05 03:39:14;;;;;;;14.07;6.70;;;;;;;1.92;100.00;97608.27;1760665;81;21051;-73
2022/01/05 03:41:41;;;;;;;13.47;6.87;;;;;;;1.92;100.00;97614.93;1760817;81;21469;-72
2022/01/05 03:44:08;;;;;;;15.33;7.10;;;;;;;1.92;100.00;97625.08;1760682;81;21493;-75
2022/01/05 03:46:35;;;;;;;17.40;7.07;;;;;;;1.93;100.00;97621.91;1743657;81;21004;-73
2022/01/05 03:49:02;;;;;;;14.23;7.43;;;;;;;1.94;100.00;97616.41;1743763;81;21000;-73
2022/01/05 03:51:29;;;;;;;18.50;8.23;;;;;;;1.96;100.00;97605.05;1743967;81;21492;-72
2022/01/05 03:53:56;;;;;;;14.43;7.43;;;;;;;2.00;100.00;97603.72;1760472;81;21043;-74
2022/01/05 03:56:23;;;;;;;14.03;7.57;;;;;;;2.01;100.00;97593.37;1743822;81;21051;-73
2022/01/05 03:58:50;;;;;;;13.50;7.30;;;;;;;2.05;100.00;97605.36;1760484;81;21084;-72
2022/01/05 04:01:17;;;;;;;14.53;6.97;;;;;;;2.11;100.00;97620.30;1743790;81;21043;-74
2022/01/05 04:03:44;;;;;;;15.27;7.47;;;;;;;2.15;100.00;97589.62;1758136;81;21009;-73
2022/01/05 04:06:11;;;;;;;14.37;7.20;;;;;;;2.16;100.00;97578.79;1756382;82;21055;-73
2022/01/05 04:08:38;;;;;;;12.80;7.00;;;;;;;2.16;100.00;97581.45;1756637;82;20999;-74
2022/01/05 04:11:05;;;;;;;14.47;7.77;;;;;;;2.15;100.00;97582.45;1738853;81;21077;-73
2022/01/05 04:13:32;;;;;;;14.10;6.70;;;;;;;2.15;100.00;97588.30;1738566;82;21035;-73
2022/01/05 04:16:00;;;;;;;13.73;6.70;;;;;;;2.16;100.00;97574.80;1739078;82;21020;-73
2022/01/05 04:18:26;;;;;;;12.60;6.33;;;;;;;2.16;100.00;97570.80;1757242;82;21054;-73
2022/01/05 04:20:53;;;;;;;12.50;6.23;;;;;;;2.22;100.00;97565.25;1739012;82;21556;-72
2022/01/05 04:23:20;;;;;;;13.17;6.77;;;;;;;2.23;100.00;97562.41;1740760;82;20980;-73
2022/01/05 04:25:47;;;;;;;12.73;6.30;;;;;;;2.22;100.00;97552.73;1739682;82;20980;-72
2022/01/05 04:28:14;;;;;;;12.13;6.50;;;;;;;2.23;100.00;97561.06;1758349;81;21496;-72
2022/01/05 04:30:41;;;;;;;12.13;6.20;;;;;;;2.25;100.00;97549.72;1738918;82;21062;-71
2022/01/05 04:33:07;;;;;;;13.07;5.93;;;;;;;2.24;100.00;97536.05;1738802;82;21473;-73
2022/01/05 04:35:34;;;;;;;14.67;5.60;;;;;;;2.25;100.00;97549.72;1738805;82;21024;-75
2022/01/05 04:38:01;;;;;;;13.10;6.27;;;;;;;2.33;100.00;97549.32;1750453;81;21013;-76
2022/01/05 04:40:30;;;;;;;14.30;6.23;;;;;;;2.35;100.00;97538.78;1741747;82;21047;-75
2022/01/05 04:42:57;;;;;;;13.37;6.47;;;;;;;2.35;100.00;97528.62;1741435;82;21540;-75
2022/01/05 04:45:24;;;;;;;23.20;10.67;;;;;;;2.33;100.00;97523.98;1741525;82;21473;-74
2022/01/05 04:47:51;;;;;;;13.57;6.47;;;;;;;2.31;100.00;97516.16;1698900;82;21012;-76
2022/01/05 04:50:18;;;;;;;14.73;5.93;;;;;;;2.30;100.00;97513.16;1750626;81;21063;-75
2022/01/05 04:52:46;;;;;;;14.23;6.50;;;;;;;2.30;100.00;97506.49;1750476;81;21017;-76
2022/01/05 04:55:13;;;;;;;12.57;5.97;;;;;;;2.31;100.00;97508.67;1741463;82;21072;-75
2022/01/05 04:57:40;;;;;;;11.30;5.63;;;;;;;2.28;100.00;97492.52;1750232;82;21059;-76
2022/01/05 05:00:09;;;;;;;11.90;5.70;;;;;;;2.27;100.00;97489.03;1741721;82;21039;-75
2022/01/05 05:02:37;;;;;;;9.10;4.90;;;;;;;2.30;100.00;97533.67;1750083;81;21514;-74
2022/01/05 05:05:04;;;;;;;9.87;5.20;;;;;;;2.31;100.00;97520.67;1750692;81;21000;-72
2022/01/05 05:07:31;;;;;;;11.50;5.23;;;;;;;2.30;100.00;97508.34;1727742;82;21038;-73
2022/01/05 05:09:58;;;;;;;11.73;5.50;;;;;;;2.30;100.00;97513.67;1719862;82;21010;-72
2022/01/05 05:12:25;;;;;;;13.40;6.00;;;;;;;2.30;100.00;97514.49;1720211;82;20995;-73
2022/01/05 05:14:52;;;;;;;11.00;5.70;;;;;;;2.28;100.00;97497.37;1720078;82;21057;-75
2022/01/05 05:17:21;;;;;;;10.53;4.77;;;;;;;2.26;100.00;97478.54;1740691;82;21022;-73
2022/01/05 05:19:47;;;;;;;12.93;5.40;;;;;;;2.22;100.00;97454.08;1720188;82;21007;-74
2022/01/05 05:22:14;;;;;;;8.90;5.13;;;;;;;2.22;100.00;97464.74;1740872;82;21260;-72
2022/01/05 05:24:42;;;;;;;13.57;5.33;;;;;;;2.22;100.00;97468.74;1740761;82;21483;-73
2022/01/05 05:27:09;;;;;;;12.27;5.60;;;;;;;2.21;100.00;97477.77;1720150;82;21038;-75
2022/01/05 05:29:36;;;;;;;9.77;4.53;;;;;;;2.22;100.00;97483.92;1720086;82;21077;-75
2022/01/05 05:32:05;;;;;;;9.70;5.03;;;;;;;2.23;100.00;97497.56;1740534;82;21069;-74
2022/01/05 05:34:33;;;;;;;10.40;4.97;;;;;;;2.25;100.00;97491.05;1740792;82;21022;-75
2022/01/05 05:37:00;;;;;;;11.13;4.73;;;;;;;2.25;100.00;97498.23;1743513;82;21579;-73
2022/01/05 05:39:27;;;;;;;10.57;5.20;;;;;;;2.23;100.00;97497.08;1717451;82;21045;-71
2022/01/05 05:41:54;;;;;;;8.67;4.50;;;;;;;2.24;100.00;97493.89;1717134;82;21143;-75
2022/01/05 05:44:21;;;;;;;9.73;5.07;;;;;;;2.24;100.00;97496.05;1746556;82;21533;-74
2022/01/05 05:46:48;;;;;;;9.80;4.67;;;;;;;2.26;100.00;97484.69;1746697;82;21491;-73
2022/01/05 05:49:15;;;;;;;6.73;4.03;;;;;;;2.27;100.00;97482.36;1746729;82;21065;-75
2022/01/05 05:51:42;;;;;;;12.67;4.87;;;;;;;2.30;100.00;97494.49;1746915;82;20990;-73
2022/01/05 05:54:09;;;;;;;11.03;4.83;;;;;;;2.32;100.00;97486.31;1746907;82;21022;-75
2022/01/05 05:56:36;;;;;;;8.43;4.67;;;;;;;2.34;100.00;97487.81;1717250;82;21137;-75
2022/01/05 05:59:03;;;;;;;9.77;5.23;;;;;;;2.35;100.00;97486.78;1746538;82;21118;-75
2022/01/05 06:01:30;;;;;;;11.37;5.00;;;;;;;2.37;100.00;97479.94;1746942;82;21459;-74
2022/01/05 06:03:57;;;;;;;10.30;5.20;;;;;;;2.38;100.00;97474.94;1754951;82;20982;-72
2022/01/05 06:06:24;;;;;;;8.07;4.47;;;;;;;2.36;100.00;97445.78;1758222;82;21038;-75
2022/01/05 06:08:51;;;;;;;8.00;4.00;;;;;;;2.36;100.00;97447.63;1742524;82;21052;-75
2022/01/05 06:11:18;;;;;;;9.47;4.50;;;;;;;2.38;100.00;97454.42;1726777;82;21021;-74
2022/01/05 06:13:46;;;;;;;10.43;4.40;;;;;;;2.38;100.00;97438.42;1726286;83;21510;-72
2022/01/05 06:16:13;;;;;;;13.07;5.23;;;;;;;2.39;100.00;97443.23;1697890;83;21036;-76
2022/01/05 06:18:40;;;;;;;9.67;4.43;;;;;;;2.40;100.00;97439.06;1697475;83;21014;-75
2022/01/05 06:21:07;;;;;;;11.73;4.87;;;;;;;2.42;100.00;97448.22;1726429;83;21024;-74
2022/01/05 06:23:34;;;;;;;7.80;4.00;;;;;;;2.43;100.00;97441.38;1727270;83;21048;-76
2022/01/05 06:26:02;;;;;;;7.10;3.90;;;;;;;2.45;100.00;97441.19;1726465;82;21028;-73
2022/01/05 06:28:30;;;;;;;12.13;6.60;;;;;;;2.49;100.00;97421.65;1706360;81;21037;-74
2022/01/05 06:30:56;;;;;;;10.20;4.60;;;;;;;2.50;100.00;97436.14;1729212;82;21042;-74
2022/01/05 06:33:23;;;;;;;10.90;4.43;;;;;;;2.51;100.00;97416.44;1725445;83;21035;-75
2022/01/05 06:35:50;;;;;;;6.87;4.30;;;;;;;2.54;100.00;97423.27;1726457;82;21497;-74
2022/01/05 06:38:17;;;;;;;10.27;5.07;;;;;;;2.54;100.00;97436.59;1719291;83;21080;-75
2022/01/05 06:40:44;;;;;;;8.03;4.50;;;;;;;2.57;100.00;97436.23;1718596;83;21044;-75
2022/01/05 06:43:14;;;;;;;9.33;4.67;;;;;;;2.58;100.00;97419.20;1708201;83;21044;-74
2022/01/05 06:45:41;;;;;;;10.07;5.17;;;;;;;2.58;100.00;97446.70;1718556;83;21537;-73
2022/01/05 06:48:08;;;;;;;16.63;7.23;;;;;;;2.59;100.00;97444.37;1718245;83;21017;-74
2022/01/05 06:50:35;;;;;;;17.10;7.23;;;;;;;2.59;100.00;97455.55;1707692;83;21102;-73
2022/01/05 06:53:02;;;;;;;19.87;9.13;;;;;;;2.60;100.00;97463.86;1708218;83;21494;-74
2022/01/05 06:55:29;;;;;;;14.43;6.80;;;;;;;2.61;100.00;97474.36;1718146;83;21497;-74
2022/01/05 06:57:56;;;;;;;13.87;6.77;;;;;;;2.63;100.00;97497.67;1718036;83;21060;-75
2022/01/05 07:00:24;;;;;;;15.87;6.23;;;;;;;2.64;100.00;97495.86;1718604;83;21001;-75
2022/01/05 07:02:51;;;;;;;10.57;4.13;;;;;;;2.64;100.00;97480.66;1725514;82;21073;-76
2022/01/05 07:05:18;;;;;;;8.80;4.30;;;;;;;2.70;100.00;97496.45;1748719;81;21038;-73
2022/01/05 07:07:45;;;;;;;9.13;4.13;;;;;;;2.77;100.00;97505.38;1739213;81;21492;-74
2022/01/05 07:10:12;;;;;;;9.43;4.00;;;;;;;2.82;100.00;97519.51;1735735;82;21052;-75
2022/01/05 07:12:39;;;;;;;11.43;4.70;;;;;;;2.85;100.00;97521.79;1732257;82;20945;-73
2022/01/05 07:15:07;;;;;;;10.93;4.83;;;;;;;2.89;100.00;97526.28;1726528;82;20968;-76
2022/01/05 07:17:34;;;;;;;8.30;4.33;;;;;;;2.91;100.00;97533.59;1735392;82;21075;-73
2022/01/05 07:20:01;;;;;;;14.87;5.80;;;;;;;2.92;100.00;97529.90;1732451;82;21558;-76
2022/01/05 07:22:28;;;;;;;14.43;5.20;;;;;;;2.92;100.00;97539.23;1734129;82;21030;-74
2022/01/05 07:24:56;;;;;;;9.33;4.53;;;;;;;2.90;100.00;97541.27;1735248;82;21024;-74
2022/01/05 07:27:23;;;;;;;13.87;5.67;;;;;;;2.93;100.00;97543.58;1736386;81;21127;-73
2022/01/05 07:29:51;;;;;;;9.60;4.57;;;;;;;2.95;100.00;97532.20;1746511;81;20975;-76
2022/01/05 07:32:18;;;;;;;17.53;7.83;;;;;;;2.94;100.00;97530.05;1732309;81;21044;-75
2022/01/05 07:34:45;;;;;;;26.70;12.40;;;;;;;2.96;100.00;97527.20;1708280;83;21008;-73
2022/01/05 07:37:12;;;;;;;13.10;4.97;;;;;;;2.94;100.00;97518.05;1719066;83;21041;-74
2022/01/05 07:39:40;;;;;;;13.37;6.07;;;;;;;2.93;100.00;97532.91;1710694;83;21056;-73
2022/01/05 07:42:09;;;;;;;10.80;5.10;;;;;;;2.96;100.00;97529.36;1720733;82;21032;-75
2022/01/05 07:44:37;;;;;;;10.53;5.10;;;;;;;2.98;100.00;97531.34;1719740;82;21712;-74
2022/01/05 07:47:07;;;;;;;11.37;6.20;;;;;;;3.00;100.00;97529.30;1719616;83;21036;-74
2022/01/05 07:49:34;;;;;;;8.97;4.50;;;;;;;2.99;100.00;97542.34;1710840;83;21044;-76
2022/01/05 07:52:01;;;;;;;10.47;4.40;;;;;;;3.00;100.00;97540.50;1711150;83;21059;-76
2022/01/05 07:54:31;;;;;;;12.93;6.33;;;;;;;3.02;100.00;97559.31;1720814;82;21047;-74
2022/01/05 07:56:59;;;;;;;11.23;5.50;;;;;;;3.04;100.00;97563.14;1720993;82;21103;-75
2022/01/05 07:59:26;;;;;;;14.00;6.33;;;;;;;3.03;100.00;97565.50;1721162;83;21028;-76
2022/01/05 08:01:53;;;;;;;20.33;8.77;;;;;;;3.03;100.00;97566.32;1711460;83;21020;-77
2022/01/05 08:04:22;;;;;;;15.27;6.20;;;;;;;3.00;100.00;97569.34;1721472;82;21063;-78
2022/01/05 08:06:49;;;;;;;6.70;4.40;;;;;;;2.98;100.00;97569.22;1721316;82;21040;-76
2022/01/05 08:09:20;;;;;;;10.00;4.50;;;;;;;2.98;100.00;97571.38;1718031;82;21069;-76
2022/01/05 08:11:47;;;;;;;9.83;4.87;;;;;;;2.98;100.00;97571.89;1741029;82;21046;-75
2022/01/05 08:14:14;;;;;;;8.13;4.97;;;;;;;2.97;100.00;97567.04;1720365;82;21026;-75
2022/01/05 08:16:42;;;;;;;15.17;5.70;;;;;;;2.97;100.00;97568.38;1740797;82;21033;-74
2022/01/05 08:19:09;;;;;;;9.60;4.60;;;;;;;2.97;100.00;97571.05;1740952;82;20975;-72
2022/01/05 08:21:37;;;;;;;11.00;5.17;;;;;;;2.98;100.00;97563.38;1742119;82;21030;-70
2022/01/05 08:24:05;;;;;;;9.33;5.00;;;;;;;3.00;100.00;97558.67;1720197;82;21085;-75
2022/01/05 08:26:32;;;;;;;14.90;7.83;;;;;;;3.02;100.00;97555.30;1740156;82;21006;-74
2022/01/05 08:29:01;;;;;;;12.30;5.93;;;;;;;3.04;100.00;97565.29;1720620;82;21038;-73
2022/01/05 08:31:29;;;;;;;14.97;6.50;;;;;;;3.06;100.00;97563.77;1740939;82;21077;-76
2022/01/05 08:33:57;;;;;;;20.10;11.53;;;;;;;3.07;100.00;97561.44;1741036;82;21105;-77
2022/01/05 08:36:24;;;;;;;14.50;6.03;;;;;;;3.08;100.00;97557.77;1733503;81;21021;-75
2022/01/05 08:38:51;;;;;;;12.10;6.00;;;;;;;3.10;100.00;97562.41;1757646;81;21035;-73
2022/01/05 08:41:19;;;;;;;11.60;5.67;;;;;;;3.13;100.00;97559.88;1735145;81;21021;-75
2022/01/05 08:43:46;;;;;;;12.17;6.20;;;;;;;3.14;100.00;97559.69;1727432;82;21472;-75
2022/01/05 08:46:13;;;;;;;10.73;5.40;;;;;;;3.16;100.00;97551.50;1723147;82;21049;-75
2022/01/05 08:48:42;;;;;;;14.67;6.50;;;;;;;3.18;100.00;97556.97;1691559;83;21022;-73
2022/01/05 08:51:09;;;;;;;14.53;6.30;;;;;;;3.19;100.00;97557.30;1746168;81;20999;-74
2022/01/05 08:53:36;;;;;;;15.27;7.60;;;;;;;3.21;100.00;97559.78;1744194;81;20991;-74
2022/01/05 08:56:03;;;;;;;16.97;7.70;;;;;;;3.23;100.00;97556.42;1756786;81;21068;-77
2022/01/05 08:58:30;;;;;;;17.83;7.10;;;;;;;3.27;100.00;97560.37;1733016;81;21110;-77
2022/01/05 09:00:57;;;;;;;15.00;6.80;;;;;;;3.30;100.00;97566.69;1730428;82;21125;-73
2022/01/05 09:03:25;;;;;;;21.00;7.90;;;;;;;3.34;100.00;97569.30;1743659;81;20994;-72
2022/01/05 09:05:53;;;;;;;17.03;7.20;;;;;;;3.38;100.00;97562.59;1739292;82;21516;-75
2022/01/05 09:08:22;;;;;;;16.77;7.13;;;;;;;3.41;100.00;97561.37;1743050;81;21607;-76
2022/01/05 09:10:48;;;;;;;18.57;7.20;;;;;;;3.46;100.00;97562.16;1751413;81;21005;-76
2022/01/05 09:13:17;;;;;;;15.80;6.57;;;;;;;3.48;100.00;97556.13;1743699;81;21008;-76
2022/01/05 09:15:44;;;;;;;13.00;6.33;;;;;;;3.49;100.00;97548.41;1744760;81;20967;-75
2022/01/05 09:18:14;;;;;;;13.30;6.47;;;;;;;3.52;100.00;97554.72;1744811;82;21076;-75
2022/01/05 09:20:43;;;;;;;14.30;6.43;;;;;;;3.54;100.00;97541.52;1747141;81;21546;-79
2022/01/05 09:23:10;;;;;;;16.40;7.37;;;;;;;3.59;100.00;97532.43;1683887;84;20979;-78
2022/01/05 09:25:37;;;;;;;17.07;8.30;;;;;;;3.59;100.00;97524.41;1745410;81;21085;-74
2022/01/05 09:28:04;;;;;;;17.73;7.63;;;;;;;3.62;100.00;97520.52;1741615;82;21002;-79
2022/01/05 09:30:32;;;;;;;16.53;7.63;;;;;;;3.63;100.00;97518.19;1763131;80;20985;-76
2022/01/05 09:32:59;;;;;;;15.63;7.60;;;;;;;3.67;100.00;97508.77;1739612;82;20994;-76
2022/01/05 09:35:35;;;;;;;15.93;6.73;;;;;;;3.68;100.00;97491.69;1741451;81;20974;-77
2022/01/05 09:43:17;;;;;;;20.43;8.20;;;;;;;3.69;100.00;97482.67;1728456;82;22235;-75
2022/01/05 09:45:49;;;;;;;19.37;8.30;;;;;;;3.69;100.00;97485.34;1739953;81;21565;-76
2022/01/05 09:48:38;;;;;;;21.30;8.60;;;;;;;3.72;100.00;97492.98;1594377;89;21018;-73
2022/01/05 09:51:12;;;;;;;24.00;10.50;;;;;;;3.71;100.00;97493.99;1576851;90;21631;-75
2022/01/05 09:53:41;;;;;;;18.93;8.13;;;;;;;3.72;100.00;97498.34;1578781;90;21095;-73
2022/01/05 09:56:11;;;;;;;14.80;7.53;;;;;;;3.71;100.00;97494.51;1554045;91;21102;-76
2022/01/05 09:58:38;;;;;;;17.90;7.60;;;;;;;3.72;100.00;97485.45;1591935;90;21104;-73
2022/01/05 10:01:12;;;;;;;19.93;8.03;;;;;;;3.70;100.00;97469.64;1538214;91;21015;-75
2022/01/05 10:03:40;;;;;;;17.67;7.50;;;;;;;3.71;100.00;97485.97;1596195;89;21031;-72
2022/01/05 10:06:07;;;;;;;19.50;8.70;;;;;;;3.71;100.00;97477.14;1568624;91;21078;-73
2022/01/05 10:08:36;;;;;;;17.53;9.30;;;;;;;3.69;100.00;97486.68;1545727;91;21084;-71
2022/01/05 10:11:03;;;;;;;15.63;7.20;;;;;;;3.68;100.00;97485.02;1577020;89;21580;-75
2022/01/05 10:13:30;;;;;;;19.30;8.47;;;;;;;3.69;100.00;97474.65;1571087;89;21111;-73
2022/01/05 10:15:57;;;;;;;17.87;8.40;;;;;;;3.69;100.00;97476.50;1569117;89;21176;-74
2022/01/05 10:18:23;;;;;;;16.60;7.83;;;;;;;3.68;100.00;97467.64;1570368;91;21112;-73
2022/01/05 10:21:01;;;;;;;16.70;8.00;;;;;;;3.69;100.00;97461.29;1557877;91;21175;-72
2022/01/05 10:23:52;;;;;;;21.27;8.57;;;;;;;3.69;100.00;97455.94;1538734;93;21090;-72
2022/01/05 10:26:34;;;;;;;18.80;9.00;;;;;;;3.71;100.00;97459.77;1531796;91;21063;-73
2022/01/05 10:29:07;;;;;;;28.60;14.45;;;;;;;3.74;100.00;97446.84;1611296;88;21043;-75
2022/01/05 10:31:38;;;;;;;28.37;14.77;;;;;;;3.77;100.00;97441.61;1614458;88;20987;-72
2022/01/05 10:34:18;;;;;;;31.70;14.33;;;;;;;3.80;100.00;97449.26;1595099;88;21020;-74
2022/01/05 10:36:50;;;;;;;28.00;13.13;;;;;;;3.83;100.00;97457.42;1617020;88;21108;-76
2022/01/05 10:39:32;;;;;;;27.47;14.70;;;;;;;3.86;100.00;97444.98;1523389;93;21086;-74
2022/01/05 10:42:14;;;;;;;26.03;12.90;;;;;;;3.88;100.00;97460.32;1536762;93;21137;-73
2022/01/05 10:44:41;;;;;;;21.43;11.03;;;;;;;3.89;100.00;97452.11;1513753;94;21599;-75
2022/01/05 10:47:08;;;;;;;27.77;14.77;;;;;;;3.93;100.00;97458.75;1529898;92;21055;-76
2022/01/05 10:49:40;;;;;;;24.43;11.20;;;;;;;3.96;100.00;97446.83;1559350;91;21164;-74
2022/01/05 10:52:29;;;;;;;21.63;10.87;;;;;;;3.96;100.00;97446.31;1539131;92;21117;-74
2022/01/05 10:55:15;;;;;;;23.07;11.37;;;;;;;4.00;100.00;97442.74;1554920;90;21094;-75
2022/01/05 10:58:07;;;;;;;23.80;11.37;;;;;;;4.03;100.00;97442.88;1569339;90;21140;-75
2022/01/05 11:00:43;;;;;;;24.57;11.77;;;;;;;4.03;100.00;97442.37;1470402;97;21623;-73
2022/01/05 11:03:37;;;;;;;24.30;11.30;;;;;;;4.04;100.00;97437.84;1472116;96;21098;-75
2022/01/05 11:06:29;;;;;;;;;;;;;;;4.02;100.00;97435.38;1434102;99;21206;-74
2022/01/05 11:09:05;;;;;;;21.90;11.40;;;;;;;4.03;100.00;97437.54;1452052;97;20223;-76
2022/01/05 11:11:42;;;;;;;27.77;12.20;;;;;;;4.01;100.00;97439.06;1451584;99;21099;-74
2022/01/05 11:14:22;;;;;;;24.23;12.40;;;;;;;4.02;100.00;97441.22;1441952;99;21151;-74
2022/01/05 11:16:51;;;;;;;26.87;13.70;;;;;;;4.03;100.00;97442.88;1376418;103;21182;-75
2022/01/05 11:19:23;;;;;;;23.93;12.10;;;;;;;4.04;100.00;97436.50;1379567;103;21165;-76
2022/01/05 11:22:12;;;;;;;27.90;16.63;;;;;;;4.06;100.00;97439.31;1406502;101;21140;-71
2022/01/05 11:24:45;;;;;;;34.60;20.70;;;;;;;4.06;100.00;97441.17;1385636;102;21801;-73
2022/01/05 11:27:24;;;;;;;38.90;21.40;;;;;;;4.06;100.00;97429.95;1389065;102;21152;-73
2022/01/05 11:29:51;;;;;;;33.73;20.23;;;;;;;4.06;100.00;97419.78;1370265;103;21194;-74
2022/01/05 11:32:20;;;;;;;29.50;15.47;;;;;;;4.06;100.00;97413.91;1365035;105;21157;-74
2022/01/05 11:34:48;;;;;;;28.63;13.40;;;;;;;4.09;100.00;97406.84;1358223;103;21172;-72